sensor_id;sensor_type;location;lat;lon;timestamp;temperature;humidity
29917;DHT22;16786;49.466;11.068;2023-04-03T00:01:17;4.10;99.90
29917;DHT22;16786;49.466;11.068;2023-04-03T00:03:44;4.00;99.90
29917;DHT22;16786;49.466;11.068;2023-04-03T00:06:12;4.00;99.90
29917;DHT22;16786;49.466;11.068;2023-04-03T00:08:40;4.00;99.90
29917;DHT22;16786;49.466;11.068;2023-04-03T00:11:09;3.90;99.90
29917;DHT22;16786;49.466;11.068;2023-04-03T00:13:37;3.90;99.90
29917;DHT22;16786;49.466;11.068;2023-04-03T00:16:06;3.90;99.90
29917;DHT22;16786;49.466;11.068;2023-04-03T00:18:33;3.90;99.90
29917;DHT22;16786;49.466;11.068;2023-04-03T00:21:01;3.80;99.90
29917;DHT22;16786;49.466;11.068;2023-04-03T00:23:28;3.70;99.90
29917;DHT22;16786;49.466;11.068;2023-04-03T00:25:56;3.70;99.90
29917;DHT22;16786;49.466;11.068;2023-04-03T00:28:24;3.60;99.90
29917;DHT22;16786;49.466;11.068;2023-04-03T00:30:51;3.60;99.90
29917;DHT22;16786;49.466;11.068;2023-04-03T00:33:19;3.60;99.90
29917;DHT22;16786;49.466;11.068;2023-04-03T00:35:51;3.60;99.90
29917;DHT22;16786;49.466;11.068;2023-04-03T00:38:19;3.50;99.90
29917;DHT22;16786;49.466;11.068;2023-04-03T00:40:49;3.50;99.90
29917;DHT22;16786;49.466;11.068;2023-04-03T00:43:22;3.50;99.90
29917;DHT22;16786;49.466;11.068;2023-04-03T00:45:53;3.50;99.90
29917;DHT22;16786;49.466;11.068;2023-04-03T00:48:26;3.50;99.90
29917;DHT22;16786;49.466;11.068;2023-04-03T00:50:57;3.50;99.90
29917;DHT22;16786;49.466;11.068;2023-04-03T00:53:35;3.50;99.90
29917;DHT22;16786;49.466;11.068;2023-04-03T00:56:10;3.50;99.90
29917;DHT22;16786;49.466;11.068;2023-04-03T00:58:46;3.50;99.90
29917;DHT22;16786;49.466;11.068;2023-04-03T01:01:20;3.50;99.90
29917;DHT22;16786;49.466;11.068;2023-04-03T01:03:49;3.50;99.90
29917;DHT22;16786;49.466;11.068;2023-04-03T01:06:21;3.50;99.90
29917;DHT22;16786;49.466;11.068;2023-04-03T01:08:50;3.50;99.90
29917;DHT22;16786;49.466;11.068;2023-04-03T01:11:18;3.50;99.90
29917;DHT22;16786;49.466;11.068;2023-04-03T01:13:45;3.50;99.90
29917;DHT22;16786;49.466;11.068;2023-04-03T01:16:13;3.50;99.90
29917;DHT22;16786;49.466;11.068;2023-04-03T01:18:41;3.50;99.90
29917;DHT22;16786;49.466;11.068;2023-04-03T01:24:11;3.40;99.90
29917;DHT22;16786;49.466;11.068;2023-04-03T01:26:42;3.40;99.90
29917;DHT22;16786;49.466;11.068;2023-04-03T01:29:10;3.40;99.90
29917;DHT22;16786;49.466;11.068;2023-04-03T01:31:58;3.40;99.90
29917;DHT22;16786;49.466;11.068;2023-04-03T01:34:27;3.40;99.90
29917;DHT22;16786;49.466;11.068;2023-04-03T01:36:55;3.30;99.90
29917;DHT22;16786;49.466;11.068;2023-04-03T01:39:23;3.40;99.90
29917;DHT22;16786;49.466;11.068;2023-04-03T01:41:51;3.30;99.90
29917;DHT22;16786;49.466;11.068;2023-04-03T01:44:29;3.30;99.90
29917;DHT22;16786;49.466;11.068;2023-04-03T01:46:57;3.30;99.90
29917;DHT22;16786;49.466;11.068;2023-04-03T01:49:26;3.20;99.90
29917;DHT22;16786;49.466;11.068;2023-04-03T01:51:55;3.10;99.90
29917;DHT22;16786;49.466;11.068;2023-04-03T01:54:22;3.10;99.90
29917;DHT22;16786;49.466;11.068;2023-04-03T01:56:50;3.00;99.90
29917;DHT22;16786;49.466;11.068;2023-04-03T01:59:18;3.00;99.90
29917;DHT22;16786;49.466;11.068;2023-04-03T02:01:46;3.00;99.90
29917;DHT22;16786;49.466;11.068;2023-04-03T02:04:13;2.90;99.90
29917;DHT22;16786;49.466;11.068;2023-04-03T02:06:41;2.80;99.90
29917;DHT22;16786;49.466;11.068;2023-04-03T02:09:08;2.80;99.90
29917;DHT22;16786;49.466;11.068;2023-04-03T02:11:36;2.70;99.90
29917;DHT22;16786;49.466;11.068;2023-04-03T02:14:03;2.70;99.90
29917;DHT22;16786;49.466;11.068;2023-04-03T02:16:31;2.60;99.90
29917;DHT22;16786;49.466;11.068;2023-04-03T02:18:58;2.60;99.90
29917;DHT22;16786;49.466;11.068;2023-04-03T02:21:25;2.60;99.90
29917;DHT22;16786;49.466;11.068;2023-04-03T02:23:53;2.60;99.90
29917;DHT22;16786;49.466;11.068;2023-04-03T02:26:21;2.60;99.90
29917;DHT22;16786;49.466;11.068;2023-04-03T02:28:48;2.60;99.90
29917;DHT22;16786;49.466;11.068;2023-04-03T02:31:15;2.50;99.90
29917;DHT22;16786;49.466;11.068;2023-04-03T02:33:45;2.50;99.90
29917;DHT22;16786;49.466;11.068;2023-04-03T02:36:14;2.50;99.90
29917;DHT22;16786;49.466;11.068;2023-04-03T02:38:46;2.40;99.90
29917;DHT22;16786;49.466;11.068;2023-04-03T02:41:14;2.40;99.90
29917;DHT22;16786;49.466;11.068;2023-04-03T02:43:41;2.40;99.90
29917;DHT22;16786;49.466;11.068;2023-04-03T02:46:09;2.30;99.90
29917;DHT22;16786;49.466;11.068;2023-04-03T02:48:36;2.30;99.90
29917;DHT22;16786;49.466;11.068;2023-04-03T02:51:04;2.30;99.90
29917;DHT22;16786;49.466;11.068;2023-04-03T02:53:31;2.30;99.90
29917;DHT22;16786;49.466;11.068;2023-04-03T02:56:05;2.20;99.90
29917;DHT22;16786;49.466;11.068;2023-04-03T02:58:32;2.20;99.90
29917;DHT22;16786;49.466;11.068;2023-04-03T03:01:01;2.20;99.90
29917;DHT22;16786;49.466;11.068;2023-04-03T03:03:29;2.10;99.90
29917;DHT22;16786;49.466;11.068;2023-04-03T03:06:08;2.00;99.90
29917;DHT22;16786;49.466;11.068;2023-04-03T03:08:36;2.00;99.90
29917;DHT22;16786;49.466;11.068;2023-04-03T03:11:04;1.90;99.90
29917;DHT22;16786;49.466;11.068;2023-04-03T03:13:33;1.90;99.90
29917;DHT22;16786;49.466;11.068;2023-04-03T03:16:01;1.80;99.90
29917;DHT22;16786;49.466;11.068;2023-04-03T03:18:29;1.80;99.90
29917;DHT22;16786;49.466;11.068;2023-04-03T03:20:58;1.80;99.90
29917;DHT22;16786;49.466;11.068;2023-04-03T03:23:27;1.80;99.90
29917;DHT22;16786;49.466;11.068;2023-04-03T03:26:00;1.70;99.90
29917;DHT22;16786;49.466;11.068;2023-04-03T03:28:28;1.80;99.90
29917;DHT22;16786;49.466;11.068;2023-04-03T03:30:56;1.80;99.90
29917;DHT22;16786;49.466;11.068;2023-04-03T03:33:25;1.80;99.90
29917;DHT22;16786;49.466;11.068;2023-04-03T03:35:53;1.80;99.90
29917;DHT22;16786;49.466;11.068;2023-04-03T03:38:21;1.80;99.90
29917;DHT22;16786;49.466;11.068;2023-04-03T03:40:50;1.80;99.90
29917;DHT22;16786;49.466;11.068;2023-04-03T03:43:20;1.80;99.90
29917;DHT22;16786;49.466;11.068;2023-04-03T03:45:52;1.90;99.90
29917;DHT22;16786;49.466;11.068;2023-04-03T03:48:23;1.90;99.90
29917;DHT22;16786;49.466;11.068;2023-04-03T03:50:51;1.90;99.90
29917;DHT22;16786;49.466;11.068;2023-04-03T03:53:22;1.90;99.90
29917;DHT22;16786;49.466;11.068;2023-04-03T03:55:52;2.00;99.90
29917;DHT22;16786;49.466;11.068;2023-04-03T03:58:23;2.00;99.90
29917;DHT22;16786;49.466;11.068;2023-04-03T04:00:50;2.10;99.90
29917;DHT22;16786;49.466;11.068;2023-04-03T04:03:17;2.10;99.90
29917;DHT22;16786;49.466;11.068;2023-04-03T04:05:47;2.20;99.90
29917;DHT22;16786;49.466;11.068;2023-04-03T04:08:15;2.20;99.90
29917;DHT22;16786;49.466;11.068;2023-04-03T04:10:44;2.30;99.90
29917;DHT22;16786;49.466;11.068;2023-04-03T04:13:14;2.40;99.90
29917;DHT22;16786;49.466;11.068;2023-04-03T04:15:42;2.40;99.90
29917;DHT22;16786;49.466;11.068;2023-04-03T04:18:10;2.40;99.90
29917;DHT22;16786;49.466;11.068;2023-04-03T04:20:40;2.40;99.90
29917;DHT22;16786;49.466;11.068;2023-04-03T04:23:08;2.50;99.90
29917;DHT22;16786;49.466;11.068;2023-04-03T04:25:36;2.50;99.90
29917;DHT22;16786;49.466;11.068;2023-04-03T04:28:05;2.50;99.90
29917;DHT22;16786;49.466;11.068;2023-04-03T04:30:33;2.50;99.90
29917;DHT22;16786;49.466;11.068;2023-04-03T04:33:00;2.50;99.90
29917;DHT22;16786;49.466;11.068;2023-04-03T04:35:28;2.50;99.90
29917;DHT22;16786;49.466;11.068;2023-04-03T04:37:56;2.50;99.90
29917;DHT22;16786;49.466;11.068;2023-04-03T04:40:23;2.50;99.90
29917;DHT22;16786;49.466;11.068;2023-04-03T04:42:51;2.40;99.90
29917;DHT22;16786;49.466;11.068;2023-04-03T04:45:19;2.40;99.90
29917;DHT22;16786;49.466;11.068;2023-04-03T04:47:47;2.30;99.90
29917;DHT22;16786;49.466;11.068;2023-04-03T04:50:15;2.30;99.90
29917;DHT22;16786;49.466;11.068;2023-04-03T04:52:44;2.20;99.90
29917;DHT22;16786;49.466;11.068;2023-04-03T04:55:11;2.20;99.90
29917;DHT22;16786;49.466;11.068;2023-04-03T04:57:40;2.10;99.90
29917;DHT22;16786;49.466;11.068;2023-04-03T05:00:08;2.10;99.90
29917;DHT22;16786;49.466;11.068;2023-04-03T05:02:35;2.10;99.90
29917;DHT22;16786;49.466;11.068;2023-04-03T05:05:03;2.00;99.90
29917;DHT22;16786;49.466;11.068;2023-04-03T05:07:32;2.00;99.90
29917;DHT22;16786;49.466;11.068;2023-04-03T05:10:02;2.00;99.90
29917;DHT22;16786;49.466;11.068;2023-04-03T05:12:30;2.00;99.90
29917;DHT22;16786;49.466;11.068;2023-04-03T05:15:00;2.00;99.90
29917;DHT22;16786;49.466;11.068;2023-04-03T05:17:29;2.00;99.90
29917;DHT22;16786;49.466;11.068;2023-04-03T05:19:58;2.10;99.90
29917;DHT22;16786;49.466;11.068;2023-04-03T05:22:26;2.20;99.90
29917;DHT22;16786;49.466;11.068;2023-04-03T05:24:58;2.30;99.90
29917;DHT22;16786;49.466;11.068;2023-04-03T05:27:26;2.30;99.90
29917;DHT22;16786;49.466;11.068;2023-04-03T05:29:57;2.40;99.90
29917;DHT22;16786;49.466;11.068;2023-04-03T05:32:25;2.50;99.90
29917;DHT22;16786;49.466;11.068;2023-04-03T05:35:15;2.50;99.90
29917;DHT22;16786;49.466;11.068;2023-04-03T05:37:45;2.60;99.90
29917;DHT22;16786;49.466;11.068;2023-04-03T05:40:14;2.70;99.90
29917;DHT22;16786;49.466;11.068;2023-04-03T05:42:46;2.70;99.90
29917;DHT22;16786;49.466;11.068;2023-04-03T05:45:14;2.80;99.90
29917;DHT22;16786;49.466;11.068;2023-04-03T05:47:42;2.90;99.90
29917;DHT22;16786;49.466;11.068;2023-04-03T05:50:09;3.00;99.90
29917;DHT22;16786;49.466;11.068;2023-04-03T05:52:40;3.10;99.90
29917;DHT22;16786;49.466;11.068;2023-04-03T05:55:08;3.10;99.90
29917;DHT22;16786;49.466;11.068;2023-04-03T05:57:36;3.30;99.90
29917;DHT22;16786;49.466;11.068;2023-04-03T06:00:06;3.40;99.90
29917;DHT22;16786;49.466;11.068;2023-04-03T06:02:39;3.40;99.90
29917;DHT22;16786;49.466;11.068;2023-04-03T06:05:10;3.50;99.90
29917;DHT22;16786;49.466;11.068;2023-04-03T06:07:40;3.50;99.90
29917;DHT22;16786;49.466;11.068;2023-04-03T06:10:11;3.60;99.90
29917;DHT22;16786;49.466;11.068;2023-04-03T06:12:39;3.70;99.90
29917;DHT22;16786;49.466;11.068;2023-04-03T06:15:07;3.70;99.90
29917;DHT22;16786;49.466;11.068;2023-04-03T06:17:37;3.70;99.90
29917;DHT22;16786;49.466;11.068;2023-04-03T06:20:05;3.80;99.90
29917;DHT22;16786;49.466;11.068;2023-04-03T06:22:33;3.90;99.90
29917;DHT22;16786;49.466;11.068;2023-04-03T06:25:01;4.00;99.90
29917;DHT22;16786;49.466;11.068;2023-04-03T06:27:29;4.00;99.90
29917;DHT22;16786;49.466;11.068;2023-04-03T06:29:56;4.20;99.90
29917;DHT22;16786;49.466;11.068;2023-04-03T06:32:23;4.20;99.90
29917;DHT22;16786;49.466;11.068;2023-04-03T06:34:51;4.20;99.90
29917;DHT22;16786;49.466;11.068;2023-04-03T06:37:22;4.40;99.90
29917;DHT22;16786;49.466;11.068;2023-04-03T06:39:49;4.40;99.90
29917;DHT22;16786;49.466;11.068;2023-04-03T06:42:17;4.50;99.90
29917;DHT22;16786;49.466;11.068;2023-04-03T06:44:52;4.50;99.90
29917;DHT22;16786;49.466;11.068;2023-04-03T06:47:19;4.60;99.90
29917;DHT22;16786;49.466;11.068;2023-04-03T06:49:47;4.70;99.90
29917;DHT22;16786;49.466;11.068;2023-04-03T06:52:14;4.70;99.90
29917;DHT22;16786;49.466;11.068;2023-04-03T06:54:42;4.70;99.90
29917;DHT22;16786;49.466;11.068;2023-04-03T06:57:10;4.80;99.90
29917;DHT22;16786;49.466;11.068;2023-04-03T06:59:37;4.80;99.90
29917;DHT22;16786;49.466;11.068;2023-04-03T07:02:04;4.90;99.90
29917;DHT22;16786;49.466;11.068;2023-04-03T07:04:32;5.10;99.90
29917;DHT22;16786;49.466;11.068;2023-04-03T07:06:59;5.20;99.90
29917;DHT22;16786;49.466;11.068;2023-04-03T07:09:27;5.20;99.90
29917;DHT22;16786;49.466;11.068;2023-04-03T07:11:54;5.30;99.90
29917;DHT22;16786;49.466;11.068;2023-04-03T07:14:21;5.40;99.90
29917;DHT22;16786;49.466;11.068;2023-04-03T07:16:49;5.40;99.90
29917;DHT22;16786;49.466;11.068;2023-04-03T07:19:16;5.40;99.90
29917;DHT22;16786;49.466;11.068;2023-04-03T07:21:45;5.60;99.90
29917;DHT22;16786;49.466;11.068;2023-04-03T07:24:13;5.70;99.90
29917;DHT22;16786;49.466;11.068;2023-04-03T07:26:42;5.80;99.90
29917;DHT22;16786;49.466;11.068;2023-04-03T07:29:12;5.90;99.90
29917;DHT22;16786;49.466;11.068;2023-04-03T07:31:39;5.90;99.90
29917;DHT22;16786;49.466;11.068;2023-04-03T07:34:08;5.90;99.90
29917;DHT22;16786;49.466;11.068;2023-04-03T07:36:35;5.90;99.90
29917;DHT22;16786;49.466;11.068;2023-04-03T07:39:03;5.90;99.90
29917;DHT22;16786;49.466;11.068;2023-04-03T07:41:30;5.80;99.90
29917;DHT22;16786;49.466;11.068;2023-04-03T07:43:58;5.80;99.90
29917;DHT22;16786;49.466;11.068;2023-04-03T07:46:25;5.90;99.90
29917;DHT22;16786;49.466;11.068;2023-04-03T07:48:53;6.20;99.90
29917;DHT22;16786;49.466;11.068;2023-04-03T07:51:22;6.40;99.90
29917;DHT22;16786;49.466;11.068;2023-04-03T07:53:51;6.30;99.90
29917;DHT22;16786;49.466;11.068;2023-04-03T07:56:21;6.40;99.90
29917;DHT22;16786;49.466;11.068;2023-04-03T07:58:50;6.40;99.90
29917;DHT22;16786;49.466;11.068;2023-04-03T08:01:17;6.50;99.90
29917;DHT22;16786;49.466;11.068;2023-04-03T08:03:45;6.60;99.90
29917;DHT22;16786;49.466;11.068;2023-04-03T08:06:13;6.60;99.90
29917;DHT22;16786;49.466;11.068;2023-04-03T08:08:46;6.70;99.90
29917;DHT22;16786;49.466;11.068;2023-04-03T08:11:14;6.90;99.90
29917;DHT22;16786;49.466;11.068;2023-04-03T08:13:42;7.00;99.90
29917;DHT22;16786;49.466;11.068;2023-04-03T08:16:13;7.10;99.90
29917;DHT22;16786;49.466;11.068;2023-04-03T08:18:40;7.40;99.90
29917;DHT22;16786;49.466;11.068;2023-04-03T08:21:09;7.50;99.90
29917;DHT22;16786;49.466;11.068;2023-04-03T08:23:39;7.40;99.90
29917;DHT22;16786;49.466;11.068;2023-04-03T08:26:10;7.40;99.90
29917;DHT22;16786;49.466;11.068;2023-04-03T08:28:38;7.50;99.90
29917;DHT22;16786;49.466;11.068;2023-04-03T08:31:11;7.40;99.90
29917;DHT22;16786;49.466;11.068;2023-04-03T08:33:39;7.30;99.90
29917;DHT22;16786;49.466;11.068;2023-04-03T08:36:14;7.30;99.90
29917;DHT22;16786;49.466;11.068;2023-04-03T08:38:43;7.40;99.90
29917;DHT22;16786;49.466;11.068;2023-04-03T08:46:13;7.70;99.90
29917;DHT22;16786;49.466;11.068;2023-04-03T08:48:43;7.50;99.90
29917;DHT22;16786;49.466;11.068;2023-04-03T08:51:16;7.40;99.90
29917;DHT22;16786;49.466;11.068;2023-04-03T08:53:56;7.40;99.90
29917;DHT22;16786;49.466;11.068;2023-04-03T08:56:24;7.50;99.90
29917;DHT22;16786;49.466;11.068;2023-04-03T08:58:58;7.50;99.90
29917;DHT22;16786;49.466;11.068;2023-04-03T09:01:33;7.50;99.90
29917;DHT22;16786;49.466;11.068;2023-04-03T09:04:08;7.60;99.90
29917;DHT22;16786;49.466;11.068;2023-04-03T09:06:38;7.80;99.90
29917;DHT22;16786;49.466;11.068;2023-04-03T09:09:35;8.00;99.90
29917;DHT22;16786;49.466;11.068;2023-04-03T09:12:21;7.90;99.90
29917;DHT22;16786;49.466;11.068;2023-04-03T09:15:16;7.90;99.90
29917;DHT22;16786;49.466;11.068;2023-04-03T09:23:44;7.80;99.90
29917;DHT22;16786;49.466;11.068;2023-04-03T09:26:33;7.80;99.90
29917;DHT22;16786;49.466;11.068;2023-04-03T09:29:06;8.10;99.90
29917;DHT22;16786;49.466;11.068;2023-04-03T09:31:39;7.80;99.90
29917;DHT22;16786;49.466;11.068;2023-04-03T09:36:57;7.80;99.90
29917;DHT22;16786;49.466;11.068;2023-04-03T09:39:27;7.70;99.90
29917;DHT22;16786;49.466;11.068;2023-04-03T09:44:34;7.80;99.90
29917;DHT22;16786;49.466;11.068;2023-04-03T09:47:37;8.10;99.90
29917;DHT22;16786;49.466;11.068;2023-04-03T09:52:44;8.40;99.90
29917;DHT22;16786;49.466;11.068;2023-04-03T09:55:19;8.50;99.90
29917;DHT22;16786;49.466;11.068;2023-04-03T09:57:49;8.50;99.90
29917;DHT22;16786;49.466;11.068;2023-04-03T10:00:23;8.40;99.90
29917;DHT22;16786;49.466;11.068;2023-04-03T10:02:57;8.30;99.90
29917;DHT22;16786;49.466;11.068;2023-04-03T10:05:38;8.50;99.90
29917;DHT22;16786;49.466;11.068;2023-04-03T10:08:24;8.70;99.90
29917;DHT22;16786;49.466;11.068;2023-04-03T10:13:35;8.70;99.90
29917;DHT22;16786;49.466;11.068;2023-04-03T10:16:20;8.80;99.90
29917;DHT22;16786;49.466;11.068;2023-04-03T10:21:57;8.90;99.90
29917;DHT22;16786;49.466;11.068;2023-04-03T10:24:41;8.80;99.90
29917;DHT22;16786;49.466;11.068;2023-04-03T10:35:39;9.30;99.90
29917;DHT22;16786;49.466;11.068;2023-04-03T10:40:47;9.60;99.90
29917;DHT22;16786;49.466;11.068;2023-04-03T10:43:32;9.60;99.90
29917;DHT22;16786;49.466;11.068;2023-04-03T10:46:23;9.40;99.90
29917;DHT22;16786;49.466;11.068;2023-04-03T10:55:28;10.00;99.90
29917;DHT22;16786;49.466;11.068;2023-04-03T10:57:53;10.10;99.90
29917;DHT22;16786;49.466;11.068;2023-04-03T11:00:39;10.40;99.90
29917;DHT22;16786;49.466;11.068;2023-04-03T11:03:13;10.40;99.90
29917;DHT22;16786;49.466;11.068;2023-04-03T11:05:47;10.30;99.90
29917;DHT22;16786;49.466;11.068;2023-04-03T11:08:27;10.20;99.90
29917;DHT22;16786;49.466;11.068;2023-04-03T11:11:36;10.30;99.90
29917;DHT22;16786;49.466;11.068;2023-04-03T11:14:03;10.20;99.90
29917;DHT22;16786;49.466;11.068;2023-04-03T11:16:37;10.20;99.90
29917;DHT22;16786;49.466;11.068;2023-04-03T11:19:52;10.10;99.90
29917;DHT22;16786;49.466;11.068;2023-04-03T11:27:43;10.50;99.90
29917;DHT22;16786;49.466;11.068;2023-04-03T11:30:15;10.50;99.90
29917;DHT22;16786;49.466;11.068;2023-04-03T11:35:23;10.70;99.90
29917;DHT22;16786;49.466;11.068;2023-04-03T11:37:52;10.60;99.90
29917;DHT22;16786;49.466;11.068;2023-04-03T11:40:29;11.00;99.90
29917;DHT22;16786;49.466;11.068;2023-04-03T11:45:52;11.90;99.90
29917;DHT22;16786;49.466;11.068;2023-04-03T11:53:39;13.00;99.80
29917;DHT22;16786;49.466;11.068;2023-04-03T12:01:56;11.90;99.90
29917;DHT22;16786;49.466;11.068;2023-04-03T12:04:27;11.90;97.20
29917;DHT22;16786;49.466;11.068;2023-04-03T12:07:21;12.30;99.80
29917;DHT22;16786;49.466;11.068;2023-04-03T12:12:30;13.30;97.50
29917;DHT22;16786;49.466;11.068;2023-04-03T12:17:45;13.70;96.70
29917;DHT22;16786;49.466;11.068;2023-04-03T12:23:30;13.10;95.20
29917;DHT22;16786;49.466;11.068;2023-04-03T12:26:20;13.10;95.40
29917;DHT22;16786;49.466;11.068;2023-04-03T12:28:50;13.70;97.10
29917;DHT22;16786;49.466;11.068;2023-04-03T12:31:22;13.90;95.00
29917;DHT22;16786;49.466;11.068;2023-04-03T12:34:39;13.60;95.10
29917;DHT22;16786;49.466;11.068;2023-04-03T12:45:58;15.00;97.60
29917;DHT22;16786;49.466;11.068;2023-04-03T12:48:32;15.00;97.40
29917;DHT22;16786;49.466;11.068;2023-04-03T12:51:01;15.20;92.50
29917;DHT22;16786;49.466;11.068;2023-04-03T12:53:33;15.80;91.60
29917;DHT22;16786;49.466;11.068;2023-04-03T12:56:23;15.90;91.40
29917;DHT22;16786;49.466;11.068;2023-04-03T12:58:52;16.40;92.50
29917;DHT22;16786;49.466;11.068;2023-04-03T13:01:26;17.00;89.30
29917;DHT22;16786;49.466;11.068;2023-04-03T13:03:56;17.50;88.00
29917;DHT22;16786;49.466;11.068;2023-04-03T13:06:32;17.80;85.50
29917;DHT22;16786;49.466;11.068;2023-04-03T13:09:02;18.00;80.70
29917;DHT22;16786;49.466;11.068;2023-04-03T13:11:36;18.30;83.30
29917;DHT22;16786;49.466;11.068;2023-04-03T13:14:15;17.90;80.60
29917;DHT22;16786;49.466;11.068;2023-04-03T13:16:57;18.80;80.20
29917;DHT22;16786;49.466;11.068;2023-04-03T13:19:26;18.80;77.30
29917;DHT22;16786;49.466;11.068;2023-04-03T13:22:06;18.00;75.70
29917;DHT22;16786;49.466;11.068;2023-04-03T13:24:37;17.70;75.70
29917;DHT22;16786;49.466;11.068;2023-04-03T13:27:05;19.40;71.90
29917;DHT22;16786;49.466;11.068;2023-04-03T13:29:39;20.60;75.20
29917;DHT22;16786;49.466;11.068;2023-04-03T13:32:23;21.90;69.40
29917;DHT22;16786;49.466;11.068;2023-04-03T13:34:51;22.50;64.10
29917;DHT22;16786;49.466;11.068;2023-04-03T13:37:30;21.80;62.30
29917;DHT22;16786;49.466;11.068;2023-04-03T13:40:10;21.80;64.90
29917;DHT22;16786;49.466;11.068;2023-04-03T13:42:40;22.50;66.50
29917;DHT22;16786;49.466;11.068;2023-04-03T13:47:53;24.30;59.60
29917;DHT22;16786;49.466;11.068;2023-04-03T13:50:24;22.80;59.40
29917;DHT22;16786;49.466;11.068;2023-04-03T13:53:02;20.90;59.80
29917;DHT22;16786;49.466;11.068;2023-04-03T13:55:32;19.30;63.50
29917;DHT22;16786;49.466;11.068;2023-04-03T14:06:16;21.70;61.40
29917;DHT22;16786;49.466;11.068;2023-04-03T14:08:45;22.70;58.30
29917;DHT22;16786;49.466;11.068;2023-04-03T14:11:18;22.80;57.80
29917;DHT22;16786;49.466;11.068;2023-04-03T14:13:48;22.70;57.50
29917;DHT22;16786;49.466;11.068;2023-04-03T14:16:19;21.20;58.90
29917;DHT22;16786;49.466;11.068;2023-04-03T14:18:48;21.00;59.30
29917;DHT22;16786;49.466;11.068;2023-04-03T14:21:18;22.10;57.20
29917;DHT22;16786;49.466;11.068;2023-04-03T14:23:45;22.50;56.20
29917;DHT22;16786;49.466;11.068;2023-04-03T14:26:21;21.20;56.10
29917;DHT22;16786;49.466;11.068;2023-04-03T14:28:51;19.40;58.00
29917;DHT22;16786;49.466;11.068;2023-04-03T14:31:23;19.60;59.50
29917;DHT22;16786;49.466;11.068;2023-04-03T14:33:51;20.60;58.50
29917;DHT22;16786;49.466;11.068;2023-04-03T14:36:22;22.00;57.10
29917;DHT22;16786;49.466;11.068;2023-04-03T14:38:51;23.60;55.90
29917;DHT22;16786;49.466;11.068;2023-04-03T14:41:21;24.50;55.10
29917;DHT22;16786;49.466;11.068;2023-04-03T14:43:49;24.20;53.30
29917;DHT22;16786;49.466;11.068;2023-04-03T14:46:21;22.00;54.60
29917;DHT22;16786;49.466;11.068;2023-04-03T14:48:55;22.40;55.50
29917;DHT22;16786;49.466;11.068;2023-04-03T14:51:22;22.40;55.00
29917;DHT22;16786;49.466;11.068;2023-04-03T14:53:50;20.80;56.60
29917;DHT22;16786;49.466;11.068;2023-04-03T14:56:23;19.40;57.30
29917;DHT22;16786;49.466;11.068;2023-04-03T14:58:55;17.20;59.60
29917;DHT22;16786;49.466;11.068;2023-04-03T15:01:24;17.20;61.60
29917;DHT22;16786;49.466;11.068;2023-04-03T15:03:52;17.80;60.20
29917;DHT22;16786;49.466;11.068;2023-04-03T15:06:20;17.90;59.70
29917;DHT22;16786;49.466;11.068;2023-04-03T15:08:47;17.10;59.70
29917;DHT22;16786;49.466;11.068;2023-04-03T15:11:15;17.10;60.90
29917;DHT22;16786;49.466;11.068;2023-04-03T15:13:42;16.50;61.80
29917;DHT22;16786;49.466;11.068;2023-04-03T15:16:16;16.10;61.40
29917;DHT22;16786;49.466;11.068;2023-04-03T15:18:44;16.00;62.20
29917;DHT22;16786;49.466;11.068;2023-04-03T15:21:13;15.30;63.30
29917;DHT22;16786;49.466;11.068;2023-04-03T15:23:40;14.10;64.80
29917;DHT22;16786;49.466;11.068;2023-04-03T15:26:09;13.20;67.00
29917;DHT22;16786;49.466;11.068;2023-04-03T15:28:40;12.60;68.10
29917;DHT22;16786;49.466;11.068;2023-04-03T15:31:08;12.20;69.40
29917;DHT22;16786;49.466;11.068;2023-04-03T15:33:36;12.30;69.20
29917;DHT22;16786;49.466;11.068;2023-04-03T15:36:04;12.10;69.60
29917;DHT22;16786;49.466;11.068;2023-04-03T15:38:42;12.80;69.30
29917;DHT22;16786;49.466;11.068;2023-04-03T15:41:10;14.60;68.80
29917;DHT22;16786;49.466;11.068;2023-04-03T15:43:37;17.50;62.50
29917;DHT22;16786;49.466;11.068;2023-04-03T15:46:05;18.70;59.30
29917;DHT22;16786;49.466;11.068;2023-04-03T15:48:32;17.80;59.50
29917;DHT22;16786;49.466;11.068;2023-04-03T15:51:00;15.90;61.40
29917;DHT22;16786;49.466;11.068;2023-04-03T15:53:27;14.60;65.20
29917;DHT22;16786;49.466;11.068;2023-04-03T15:55:54;14.50;64.40
29917;DHT22;16786;49.466;11.068;2023-04-03T15:58:22;15.30;66.10
29917;DHT22;16786;49.466;11.068;2023-04-03T16:00:49;17.10;61.50
29917;DHT22;16786;49.466;11.068;2023-04-03T16:03:18;19.60;59.40
29917;DHT22;16786;49.466;11.068;2023-04-03T16:05:47;20.80;56.90
29917;DHT22;16786;49.466;11.068;2023-04-03T16:08:14;21.50;55.70
29917;DHT22;16786;49.466;11.068;2023-04-03T16:10:43;21.60;55.50
29917;DHT22;16786;49.466;11.068;2023-04-03T16:13:13;21.60;54.90
29917;DHT22;16786;49.466;11.068;2023-04-03T16:15:41;21.10;54.80
29917;DHT22;16786;49.466;11.068;2023-04-03T16:18:09;19.70;55.50
29917;DHT22;16786;49.466;11.068;2023-04-03T16:20:37;18.20;57.30
29917;DHT22;16786;49.466;11.068;2023-04-03T16:23:05;18.10;57.80
29917;DHT22;16786;49.466;11.068;2023-04-03T16:25:32;18.50;57.80
29917;DHT22;16786;49.466;11.068;2023-04-03T16:28:00;19.20;57.10
29917;DHT22;16786;49.466;11.068;2023-04-03T16:30:27;20.20;56.60
29917;DHT22;16786;49.466;11.068;2023-04-03T16:32:56;22.00;55.20
29917;DHT22;16786;49.466;11.068;2023-04-03T16:35:24;22.90;53.00
29917;DHT22;16786;49.466;11.068;2023-04-03T16:37:51;22.90;52.70
29917;DHT22;16786;49.466;11.068;2023-04-03T16:40:19;22.60;53.90
29917;DHT22;16786;49.466;11.068;2023-04-03T16:42:46;22.20;53.00
29917;DHT22;16786;49.466;11.068;2023-04-03T16:45:14;21.50;54.00
29917;DHT22;16786;49.466;11.068;2023-04-03T16:47:41;21.10;54.20
29917;DHT22;16786;49.466;11.068;2023-04-03T16:50:09;20.20;55.00
29917;DHT22;16786;49.466;11.068;2023-04-03T16:52:38;20.20;55.40
29917;DHT22;16786;49.466;11.068;2023-04-03T16:55:05;20.00;55.00
29917;DHT22;16786;49.466;11.068;2023-04-03T16:57:33;20.20;54.80
29917;DHT22;16786;49.466;11.068;2023-04-03T17:00:00;20.30;54.80
29917;DHT22;16786;49.466;11.068;2023-04-03T17:02:28;20.50;55.00
29917;DHT22;16786;49.466;11.068;2023-04-03T17:04:56;20.10;54.80
29917;DHT22;16786;49.466;11.068;2023-04-03T17:07:25;19.90;55.40
29917;DHT22;16786;49.466;11.068;2023-04-03T17:09:55;19.50;55.30
29917;DHT22;16786;49.466;11.068;2023-04-03T17:12:25;19.00;56.00
29917;DHT22;16786;49.466;11.068;2023-04-03T17:14:53;18.50;56.00
29917;DHT22;16786;49.466;11.068;2023-04-03T17:17:24;18.00;55.90
29917;DHT22;16786;49.466;11.068;2023-04-03T17:19:56;17.30;57.00
29917;DHT22;16786;49.466;11.068;2023-04-03T17:22:24;16.60;58.20